sensor_id;sensor_type;location;lat;lon;timestamp;P1;durP1;ratioP1;P2;durP2;ratioP2
15643;SDS011;7921;43.586;1.408;2022-12-17T00:00:30;9.60;;;8.80;;
15643;SDS011;7921;43.586;1.408;2022-12-17T00:03:14;10.27;;;9.37;;
15643;SDS011;7921;43.586;1.408;2022-12-17T00:05:58;10.47;;;9.50;;
15643;SDS011;7921;43.586;1.408;2022-12-17T00:08:42;10.70;;;9.80;;
15643;SDS011;7921;43.586;1.408;2022-12-17T00:11:25;10.03;;;9.17;;
15643;SDS011;7921;43.586;1.408;2022-12-17T00:14:09;11.17;;;10.27;;
15643;SDS011;7921;43.586;1.408;2022-12-17T00:16:53;10.70;;;9.80;;
15643;SDS011;7921;43.586;1.408;2022-12-17T00:19:37;10.30;;;9.47;;
15643;SDS011;7921;43.586;1.408;2022-12-17T00:22:20;10.20;;;9.40;;
15643;SDS011;7921;43.586;1.408;2022-12-17T00:25:05;10.30;;;9.50;;
15643;SDS011;7921;43.586;1.408;2022-12-17T00:27:49;10.70;;;9.70;;
15643;SDS011;7921;43.586;1.408;2022-12-17T00:30:33;10.40;;;9.50;;
15643;SDS011;7921;43.586;1.408;2022-12-17T00:33:16;11.07;;;10.17;;
15643;SDS011;7921;43.586;1.408;2022-12-17T00:36:01;11.23;;;10.17;;
15643;SDS011;7921;43.586;1.408;2022-12-17T00:38:45;10.63;;;9.73;;
15643;SDS011;7921;43.586;1.408;2022-12-17T00:41:28;10.97;;;10.07;;
15643;SDS011;7921;43.586;1.408;2022-12-17T00:44:12;11.13;;;10.23;;
15643;SDS011;7921;43.586;1.408;2022-12-17T00:46:56;11.10;;;10.07;;
15643;SDS011;7921;43.586;1.408;2022-12-17T00:49:40;10.47;;;9.57;;
15643;SDS011;7921;43.586;1.408;2022-12-17T00:52:24;10.73;;;9.77;;
15643;SDS011;7921;43.586;1.408;2022-12-17T00:55:08;10.10;;;9.30;;
15643;SDS011;7921;43.586;1.408;2022-12-17T00:57:53;9.97;;;9.17;;
15643;SDS011;7921;43.586;1.408;2022-12-17T01:00:38;8.40;;;7.67;;
15643;SDS011;7921;43.586;1.408;2022-12-17T01:03:22;9.67;;;8.90;;
15643;SDS011;7921;43.586;1.408;2022-12-17T01:06:06;10.47;;;9.60;;
15643;SDS011;7921;43.586;1.408;2022-12-17T01:08:50;10.63;;;9.73;;
15643;SDS011;7921;43.586;1.408;2022-12-17T01:11:34;10.37;;;9.57;;
15643;SDS011;7921;43.586;1.408;2022-12-17T01:14:18;10.00;;;9.20;;
15643;SDS011;7921;43.586;1.408;2022-12-17T01:17:02;10.83;;;9.93;;
15643;SDS011;7921;43.586;1.408;2022-12-17T01:19:46;12.55;;;11.52;;
15643;SDS011;7921;43.586;1.408;2022-12-17T01:22:30;11.03;;;10.13;;
15643;SDS011;7921;43.586;1.408;2022-12-17T01:25:14;11.33;;;10.33;;
15643;SDS011;7921;43.586;1.408;2022-12-17T01:27:58;11.60;;;10.60;;
15643;SDS011;7921;43.586;1.408;2022-12-17T01:30:41;10.67;;;9.87;;
15643;SDS011;7921;43.586;1.408;2022-12-17T01:33:25;11.07;;;10.17;;
15643;SDS011;7921;43.586;1.408;2022-12-17T01:36:09;11.23;;;10.23;;
15643;SDS011;7921;43.586;1.408;2022-12-17T01:38:53;10.87;;;9.87;;
15643;SDS011;7921;43.586;1.408;2022-12-17T01:41:37;11.40;;;10.40;;
15643;SDS011;7921;43.586;1.408;2022-12-17T01:50:25;11.70;;;10.80;;
15643;SDS011;7921;43.586;1.408;2022-12-17T01:53:11;11.57;;;10.67;;
15643;SDS011;7921;43.586;1.408;2022-12-17T01:55:57;12.43;;;11.33;;
15643;SDS011;7921;43.586;1.408;2022-12-17T01:58:41;12.70;;;11.70;;
15643;SDS011;7921;43.586;1.408;2022-12-17T02:01:26;12.97;;;11.77;;
15643;SDS011;7921;43.586;1.408;2022-12-17T02:04:10;14.07;;;12.87;;
15643;SDS011;7921;43.586;1.408;2022-12-17T02:10:23;14.13;;;12.80;;
15643;SDS011;7921;43.586;1.408;2022-12-17T02:16:18;12.10;;;11.00;;
15643;SDS011;7921;43.586;1.408;2022-12-17T02:22:02;11.33;;;10.43;;
15643;SDS011;7921;43.586;1.408;2022-12-17T02:24:55;11.70;;;10.70;;
15643;SDS011;7921;43.586;1.408;2022-12-17T02:27:43;12.17;;;11.17;;
15643;SDS011;7921;43.586;1.408;2022-12-17T02:30:28;11.87;;;10.87;;
15643;SDS011;7921;43.586;1.408;2022-12-17T02:33:12;12.17;;;10.83;;
15643;SDS011;7921;43.586;1.408;2022-12-17T02:35:58;11.83;;;10.90;;
15643;SDS011;7921;43.586;1.408;2022-12-17T02:38:45;13.40;;;12.30;;
15643;SDS011;7921;43.586;1.408;2022-12-17T02:41:40;12.17;;;11.20;;
15643;SDS011;7921;43.586;1.408;2022-12-17T02:44:28;11.27;;;10.37;;
15643;SDS011;7921;43.586;1.408;2022-12-17T02:47:13;12.87;;;11.87;;
15643;SDS011;7921;43.586;1.408;2022-12-17T02:49:57;11.87;;;10.90;;
15643;SDS011;7921;43.586;1.408;2022-12-17T02:52:43;11.87;;;10.97;;
15643;SDS011;7921;43.586;1.408;2022-12-17T02:55:29;11.37;;;10.40;;
15643;SDS011;7921;43.586;1.408;2022-12-17T02:58:13;11.37;;;10.47;;
15643;SDS011;7921;43.586;1.408;2022-12-17T03:00:57;11.83;;;10.63;;
15643;SDS011;7921;43.586;1.408;2022-12-17T03:03:41;10.77;;;9.80;;
15643;SDS011;7921;43.586;1.408;2022-12-17T03:06:25;11.87;;;10.87;;
15643;SDS011;7921;43.586;1.408;2022-12-17T03:09:09;10.03;;;9.23;;
15643;SDS011;7921;43.586;1.408;2022-12-17T03:11:52;12.43;;;11.33;;
15643;SDS011;7921;43.586;1.408;2022-12-17T03:14:36;11.23;;;10.33;;
15643;SDS011;7921;43.586;1.408;2022-12-17T03:17:20;10.87;;;10.03;;
15643;SDS011;7921;43.586;1.408;2022-12-17T03:20:05;11.67;;;10.57;;
15643;SDS011;7921;43.586;1.408;2022-12-17T03:22:49;10.97;;;10.07;;
15643;SDS011;7921;43.586;1.408;2022-12-17T03:25:33;10.80;;;9.80;;
15643;SDS011;7921;43.586;1.408;2022-12-17T03:28:30;11.10;;;10.10;;
15643;SDS011;7921;43.586;1.408;2022-12-17T03:31:14;10.50;;;9.70;;
15643;SDS011;7921;43.586;1.408;2022-12-17T03:33:58;11.73;;;10.73;;
15643;SDS011;7921;43.586;1.408;2022-12-17T03:36:42;10.97;;;10.07;;
15643;SDS011;7921;43.586;1.408;2022-12-17T03:39:26;11.87;;;10.87;;
15643;SDS011;7921;43.586;1.408;2022-12-17T03:42:10;11.97;;;10.87;;
15643;SDS011;7921;43.586;1.408;2022-12-17T03:44:53;11.40;;;10.50;;
15643;SDS011;7921;43.586;1.408;2022-12-17T03:47:37;8.13;;;7.20;;
15643;SDS011;7921;43.586;1.408;2022-12-17T03:50:21;8.60;;;7.67;;
15643;SDS011;7921;43.586;1.408;2022-12-17T03:53:05;7.80;;;6.87;;
15643;SDS011;7921;43.586;1.408;2022-12-17T03:55:49;9.37;;;6.67;;
15643;SDS011;7921;43.586;1.408;2022-12-17T03:58:33;8.53;;;7.73;;
15643;SDS011;7921;43.586;1.408;2022-12-17T04:01:17;7.20;;;6.50;;
15643;SDS011;7921;43.586;1.408;2022-12-17T04:04:01;7.80;;;6.83;;
15643;SDS011;7921;43.586;1.408;2022-12-17T04:06:45;7.80;;;7.00;;
15643;SDS011;7921;43.586;1.408;2022-12-17T04:09:29;8.40;;;7.60;;
15643;SDS011;7921;43.586;1.408;2022-12-17T04:12:20;7.23;;;6.30;;
15643;SDS011;7921;43.586;1.408;2022-12-17T04:15:04;8.17;;;7.37;;
15643;SDS011;7921;43.586;1.408;2022-12-17T04:17:48;8.67;;;7.87;;
15643;SDS011;7921;43.586;1.408;2022-12-17T04:20:32;7.73;;;6.93;;
15643;SDS011;7921;43.586;1.408;2022-12-17T04:23:16;8.57;;;7.57;;
15643;SDS011;7921;43.586;1.408;2022-12-17T04:26:00;10.60;;;9.70;;
15643;SDS011;7921;43.586;1.408;2022-12-17T04:28:44;9.33;;;8.43;;
15643;SDS011;7921;43.586;1.408;2022-12-17T04:31:28;8.87;;;7.87;;
15643;SDS011;7921;43.586;1.408;2022-12-17T04:34:12;11.80;;;8.33;;
15643;SDS011;7921;43.586;1.408;2022-12-17T04:36:56;10.93;;;9.93;;
15643;SDS011;7921;43.586;1.408;2022-12-17T04:39:40;10.90;;;10.00;;
15643;SDS011;7921;43.586;1.408;2022-12-17T04:42:24;11.03;;;10.13;;
15643;SDS011;7921;43.586;1.408;2022-12-17T04:45:08;10.33;;;9.43;;
15643;SDS011;7921;43.586;1.408;2022-12-17T04:48:02;8.10;;;7.30;;
15643;SDS011;7921;43.586;1.408;2022-12-17T04:50:47;8.57;;;7.77;;
15643;SDS011;7921;43.586;1.408;2022-12-17T04:53:31;11.23;;;10.23;;
15643;SDS011;7921;43.586;1.408;2022-12-17T04:56:15;9.87;;;9.07;;
15643;SDS011;7921;43.586;1.408;2022-12-17T04:58:59;9.97;;;9.17;;
15643;SDS011;7921;43.586;1.408;2022-12-17T05:01:43;9.17;;;8.37;;
15643;SDS011;7921;43.586;1.408;2022-12-17T05:04:27;9.43;;;8.73;;
15643;SDS011;7921;43.586;1.408;2022-12-17T05:07:11;8.93;;;8.23;;
15643;SDS011;7921;43.586;1.408;2022-12-17T05:09:55;9.13;;;8.33;;
15643;SDS011;7921;43.586;1.408;2022-12-17T05:12:39;8.47;;;7.77;;
15643;SDS011;7921;43.586;1.408;2022-12-17T05:15:23;8.20;;;7.53;;
15643;SDS011;7921;43.586;1.408;2022-12-17T05:18:07;9.50;;;8.70;;
15643;SDS011;7921;43.586;1.408;2022-12-17T05:20:51;8.83;;;8.10;;
15643;SDS011;7921;43.586;1.408;2022-12-17T05:23:35;7.63;;;7.03;;
15643;SDS011;7921;43.586;1.408;2022-12-17T05:26:20;8.50;;;7.80;;
15643;SDS011;7921;43.586;1.408;2022-12-17T05:29:08;8.17;;;7.47;;
15643;SDS011;7921;43.586;1.408;2022-12-17T05:31:52;8.73;;;8.03;;
15643;SDS011;7921;43.586;1.408;2022-12-17T05:34:36;8.13;;;7.43;;
15643;SDS011;7921;43.586;1.408;2022-12-17T05:37:20;9.90;;;8.47;;
15643;SDS011;7921;43.586;1.408;2022-12-17T05:40:05;9.63;;;8.93;;
15643;SDS011;7921;43.586;1.408;2022-12-17T05:42:53;10.17;;;9.27;;
15643;SDS011;7921;43.586;1.408;2022-12-17T05:45:39;8.73;;;7.93;;
15643;SDS011;7921;43.586;1.408;2022-12-17T05:48:23;8.60;;;7.93;;
15643;SDS011;7921;43.586;1.408;2022-12-17T05:51:08;9.70;;;8.53;;
15643;SDS011;7921;43.586;1.408;2022-12-17T05:53:52;8.70;;;8.00;;
15643;SDS011;7921;43.586;1.408;2022-12-17T05:56:36;9.10;;;8.30;;
15643;SDS011;7921;43.586;1.408;2022-12-17T05:59:20;9.00;;;8.30;;
15643;SDS011;7921;43.586;1.408;2022-12-17T06:02:04;9.40;;;8.70;;
15643;SDS011;7921;43.586;1.408;2022-12-17T06:04:48;7.87;;;7.27;;
15643;SDS011;7921;43.586;1.408;2022-12-17T06:07:32;9.30;;;8.03;;
15643;SDS011;7921;43.586;1.408;2022-12-17T06:10:16;8.77;;;7.97;;
15643;SDS011;7921;43.586;1.408;2022-12-17T06:13:00;8.43;;;7.73;;
15643;SDS011;7921;43.586;1.408;2022-12-17T06:15:47;8.80;;;8.10;;
15643;SDS011;7921;43.586;1.408;2022-12-17T06:18:32;9.10;;;8.30;;
15643;SDS011;7921;43.586;1.408;2022-12-17T06:21:16;8.60;;;7.80;;
15643;SDS011;7921;43.586;1.408;2022-12-17T06:24:00;9.40;;;8.60;;
15643;SDS011;7921;43.586;1.408;2022-12-17T06:26:44;8.57;;;7.87;;
15643;SDS011;7921;43.586;1.408;2022-12-17T06:29:28;9.13;;;8.43;;
15643;SDS011;7921;43.586;1.408;2022-12-17T06:32:12;8.80;;;8.00;;
15643;SDS011;7921;43.586;1.408;2022-12-17T06:34:56;8.73;;;8.03;;
15643;SDS011;7921;43.586;1.408;2022-12-17T06:37:39;8.20;;;7.60;;
15643;SDS011;7921;43.586;1.408;2022-12-17T06:40:23;8.47;;;7.80;;
15643;SDS011;7921;43.586;1.408;2022-12-17T06:43:07;8.47;;;7.83;;
15643;SDS011;7921;43.586;1.408;2022-12-17T06:45:51;8.57;;;7.97;;
15643;SDS011;7921;43.586;1.408;2022-12-17T06:48:35;8.83;;;8.13;;
15643;SDS011;7921;43.586;1.408;2022-12-17T06:51:19;9.07;;;8.30;;
15643;SDS011;7921;43.586;1.408;2022-12-17T06:54:03;9.33;;;8.63;;
15643;SDS011;7921;43.586;1.408;2022-12-17T06:56:47;9.20;;;8.30;;
15643;SDS011;7921;43.586;1.408;2022-12-17T06:59:31;9.03;;;8.33;;
15643;SDS011;7921;43.586;1.408;2022-12-17T07:02:15;8.37;;;7.77;;
15643;SDS011;7921;43.586;1.408;2022-12-17T07:04:59;9.10;;;8.33;;
15643;SDS011;7921;43.586;1.408;2022-12-17T07:07:43;9.00;;;8.30;;
15643;SDS011;7921;43.586;1.408;2022-12-17T07:10:27;9.77;;;8.77;;
15643;SDS011;7921;43.586;1.408;2022-12-17T07:13:10;9.77;;;8.97;;
15643;SDS011;7921;43.586;1.408;2022-12-17T07:15:54;8.50;;;7.80;;
15643;SDS011;7921;43.586;1.408;2022-12-17T07:18:39;9.53;;;8.83;;
15643;SDS011;7921;43.586;1.408;2022-12-17T07:21:23;9.23;;;8.53;;
15643;SDS011;7921;43.586;1.408;2022-12-17T07:24:07;10.47;;;9.57;;
15643;SDS011;7921;43.586;1.408;2022-12-17T07:26:51;9.23;;;8.43;;
15643;SDS011;7921;43.586;1.408;2022-12-17T07:29:35;9.73;;;8.93;;
15643;SDS011;7921;43.586;1.408;2022-12-17T07:32:19;9.27;;;8.47;;
15643;SDS011;7921;43.586;1.408;2022-12-17T07:35:03;9.97;;;9.07;;
15643;SDS011;7921;43.586;1.408;2022-12-17T07:37:47;9.83;;;9.03;;
15643;SDS011;7921;43.586;1.408;2022-12-17T07:40:31;9.27;;;8.37;;
15643;SDS011;7921;43.586;1.408;2022-12-17T07:43:15;9.97;;;9.07;;
15643;SDS011;7921;43.586;1.408;2022-12-17T07:45:59;9.13;;;8.43;;
15643;SDS011;7921;43.586;1.408;2022-12-17T07:48:43;9.23;;;8.43;;
15643;SDS011;7921;43.586;1.408;2022-12-17T07:51:28;8.90;;;8.20;;
15643;SDS011;7921;43.586;1.408;2022-12-17T07:54:12;10.07;;;9.27;;
15643;SDS011;7921;43.586;1.408;2022-12-17T07:56:55;9.87;;;9.03;;
15643;SDS011;7921;43.586;1.408;2022-12-17T07:59:39;10.13;;;9.33;;
15643;SDS011;7921;43.586;1.408;2022-12-17T08:02:23;10.33;;;9.37;;
15643;SDS011;7921;43.586;1.408;2022-12-17T08:05:07;10.10;;;9.30;;
15643;SDS011;7921;43.586;1.408;2022-12-17T08:07:51;11.30;;;10.40;;
15643;SDS011;7921;43.586;1.408;2022-12-17T08:10:35;9.90;;;9.10;;
15643;SDS011;7921;43.586;1.408;2022-12-17T08:13:19;9.27;;;8.47;;
15643;SDS011;7921;43.586;1.408;2022-12-17T08:16:03;10.30;;;9.40;;
15643;SDS011;7921;43.586;1.408;2022-12-17T08:18:47;9.83;;;9.03;;
15643;SDS011;7921;43.586;1.408;2022-12-17T08:21:31;11.10;;;10.10;;
15643;SDS011;7921;43.586;1.408;2022-12-17T08:24:15;10.77;;;9.77;;
15643;SDS011;7921;43.586;1.408;2022-12-17T08:26:59;10.63;;;9.67;;
15643;SDS011;7921;43.586;1.408;2022-12-17T08:29:43;9.17;;;8.47;;
15643;SDS011;7921;43.586;1.408;2022-12-17T08:32:27;10.20;;;9.40;;
15643;SDS011;7921;43.586;1.408;2022-12-17T08:35:11;8.67;;;7.97;;
15643;SDS011;7921;43.586;1.408;2022-12-17T08:38:01;8.00;;;7.40;;
15643;SDS011;7921;43.586;1.408;2022-12-17T08:40:48;7.87;;;7.17;;
15643;SDS011;7921;43.586;1.408;2022-12-17T08:43:32;7.83;;;7.13;;
15643;SDS011;7921;43.586;1.408;2022-12-17T08:46:16;8.87;;;8.13;;
15643;SDS011;7921;43.586;1.408;2022-12-17T08:49:01;8.57;;;7.93;;
15643;SDS011;7921;43.586;1.408;2022-12-17T08:51:45;9.53;;;8.73;;
15643;SDS011;7921;43.586;1.408;2022-12-17T08:54:29;9.40;;;8.60;;
15643;SDS011;7921;43.586;1.408;2022-12-17T08:57:13;8.67;;;7.93;;
15643;SDS011;7921;43.586;1.408;2022-12-17T08:59:57;10.70;;;9.60;;
15643;SDS011;7921;43.586;1.408;2022-12-17T09:02:41;11.40;;;10.40;;
15643;SDS011;7921;43.586;1.408;2022-12-17T09:05:25;12.50;;;11.30;;
15643;SDS011;7921;43.586;1.408;2022-12-17T09:08:09;11.33;;;10.37;;
15643;SDS011;7921;43.586;1.408;2022-12-17T09:10:53;11.47;;;10.57;;
15643;SDS011;7921;43.586;1.408;2022-12-17T09:13:37;11.17;;;10.27;;
15643;SDS011;7921;43.586;1.408;2022-12-17T09:16:21;11.37;;;10.40;;
15643;SDS011;7921;43.586;1.408;2022-12-17T09:19:05;11.27;;;10.37;;
15643;SDS011;7921;43.586;1.408;2022-12-17T09:21:49;11.13;;;10.20;;
15643;SDS011;7921;43.586;1.408;2022-12-17T09:24:33;10.60;;;9.80;;
15643;SDS011;7921;43.586;1.408;2022-12-17T09:27:17;11.60;;;10.50;;
15643;SDS011;7921;43.586;1.408;2022-12-17T09:30:01;11.13;;;10.13;;
15643;SDS011;7921;43.586;1.408;2022-12-17T09:32:45;10.87;;;9.87;;
15643;SDS011;7921;43.586;1.408;2022-12-17T09:35:29;11.37;;;10.47;;
15643;SDS011;7921;43.586;1.408;2022-12-17T09:38:13;11.23;;;10.27;;
15643;SDS011;7921;43.586;1.408;2022-12-17T09:40:59;10.67;;;9.77;;
15643;SDS011;7921;43.586;1.408;2022-12-17T09:43:54;11.47;;;10.40;;
15643;SDS011;7921;43.586;1.408;2022-12-17T09:46:49;11.43;;;10.43;;
15643;SDS011;7921;43.586;1.408;2022-12-17T09:49:37;11.13;;;10.23;;
15643;SDS011;7921;43.586;1.408;2022-12-17T09:52:25;10.90;;;9.90;;
15643;SDS011;7921;43.586;1.408;2022-12-17T09:55:16;10.13;;;9.23;;
15643;SDS011;7921;43.586;1.408;2022-12-17T09:58:05;9.83;;;9.00;;
15643;SDS011;7921;43.586;1.408;2022-12-17T10:01:01;9.90;;;9.10;;
15643;SDS011;7921;43.586;1.408;2022-12-17T10:03:45;8.60;;;7.90;;
15643;SDS011;7921;43.586;1.408;2022-12-17T10:06:29;7.97;;;7.37;;
15643;SDS011;7921;43.586;1.408;2022-12-17T10:09:17;8.20;;;7.50;;
15643;SDS011;7921;43.586;1.408;2022-12-17T10:12:12;7.20;;;6.60;;
15643;SDS011;7921;43.586;1.408;2022-12-17T10:14:57;7.77;;;7.17;;
15643;SDS011;7921;43.586;1.408;2022-12-17T10:17:41;5.90;;;5.43;;
15643;SDS011;7921;43.586;1.408;2022-12-17T10:20:42;6.23;;;5.77;;
15643;SDS011;7921;43.586;1.408;2022-12-17T10:23:29;3.50;;;3.13;;
15643;SDS011;7921;43.586;1.408;2022-12-17T10:26:19;3.10;;;2.90;;
15643;SDS011;7921;43.586;1.408;2022-12-17T10:29:12;2.70;;;2.50;;
15643;SDS011;7921;43.586;1.408;2022-12-17T10:32:17;3.20;;;2.53;;
15643;SDS011;7921;43.586;1.408;2022-12-17T10:35:23;2.60;;;2.40;;
15643;SDS011;7921;43.586;1.408;2022-12-17T10:44:22;2.77;;;2.57;;
15643;SDS011;7921;43.586;1.408;2022-12-17T10:47:17;3.10;;;2.87;;
15643;SDS011;7921;43.586;1.408;2022-12-17T10:50:13;3.20;;;3.00;;
15643;SDS011;7921;43.586;1.408;2022-12-17T10:52:59;3.37;;;3.17;;
15643;SDS011;7921;43.586;1.408;2022-12-17T10:55:53;3.27;;;3.03;;
15643;SDS011;7921;43.586;1.408;2022-12-17T10:58:46;2.80;;;2.60;;
15643;SDS011;7921;43.586;1.408;2022-12-17T11:01:32;2.90;;;2.70;;
15643;SDS011;7921;43.586;1.408;2022-12-17T11:04:23;3.50;;;3.20;;
15643;SDS011;7921;43.586;1.408;2022-12-17T11:10:19;3.03;;;2.83;;
15643;SDS011;7921;43.586;1.408;2022-12-17T11:13:10;3.50;;;3.20;;
15643;SDS011;7921;43.586;1.408;2022-12-17T11:15:56;3.60;;;3.40;;
15643;SDS011;7921;43.586;1.408;2022-12-17T11:18:49;5.63;;;5.23;;
15643;SDS011;7921;43.586;1.408;2022-12-17T11:21:44;5.93;;;5.53;;
15643;SDS011;7921;43.586;1.408;2022-12-17T11:24:37;5.97;;;5.57;;
15643;SDS011;7921;43.586;1.408;2022-12-17T11:27:24;6.10;;;5.53;;
15643;SDS011;7921;43.586;1.408;2022-12-17T11:30:16;6.47;;;5.97;;
15643;SDS011;7921;43.586;1.408;2022-12-17T11:35:57;6.60;;;6.10;;
15643;SDS011;7921;43.586;1.408;2022-12-17T11:38:46;5.87;;;5.47;;
15643;SDS011;7921;43.586;1.408;2022-12-17T11:47:29;5.70;;;5.30;;
15643;SDS011;7921;43.586;1.408;2022-12-17T11:50:30;5.60;;;5.20;;
15643;SDS011;7921;43.586;1.408;2022-12-17T11:56:21;5.20;;;4.80;;
15643;SDS011;7921;43.586;1.408;2022-12-17T11:59:08;5.40;;;5.00;;
15643;SDS011;7921;43.586;1.408;2022-12-17T12:10:48;5.90;;;5.37;;
15643;SDS011;7921;43.586;1.408;2022-12-17T12:14:43;6.07;;;5.47;;
15643;SDS011;7921;43.586;1.408;2022-12-17T12:26:26;6.17;;;5.57;;
15643;SDS011;7921;43.586;1.408;2022-12-17T12:29:32;6.73;;;6.13;;
15643;SDS011;7921;43.586;1.408;2022-12-17T12:32:41;7.40;;;6.63;;
15643;SDS011;7921;43.586;1.408;2022-12-17T12:35:28;7.50;;;6.90;;
15643;SDS011;7921;43.586;1.408;2022-12-17T12:38:33;8.67;;;7.97;;
15643;SDS011;7921;43.586;1.408;2022-12-17T12:41:25;6.90;;;6.40;;
15643;SDS011;7921;43.586;1.408;2022-12-17T12:44:41;7.07;;;6.57;;
15643;SDS011;7921;43.586;1.408;2022-12-17T12:47:39;6.80;;;6.30;;
15643;SDS011;7921;43.586;1.408;2022-12-17T12:53:39;6.43;;;5.93;;
15643;SDS011;7921;43.586;1.408;2022-12-17T12:56:27;6.57;;;6.07;;
15643;SDS011;7921;43.586;1.408;2022-12-17T12:59:36;6.50;;;6.00;;
15643;SDS011;7921;43.586;1.408;2022-12-17T13:02:23;6.03;;;5.53;;
15643;SDS011;7921;43.586;1.408;2022-12-17T13:10:47;5.20;;;4.80;;
15643;SDS011;7921;43.586;1.408;2022-12-17T13:15:45;5.17;;;4.77;;
15643;SDS011;7921;43.586;1.408;2022-12-17T13:20:57;5.57;;;5.20;;
15643;SDS011;7921;43.586;1.408;2022-12-17T13:23:26;4.50;;;4.20;;
15643;SDS011;7921;43.586;1.408;2022-12-17T13:29:28;3.97;;;3.60;;
15643;SDS011;7921;43.586;1.408;2022-12-17T13:37:52;3.47;;;3.27;;
15643;SDS011;7921;43.586;1.408;2022-12-17T13:43:20;3.50;;;3.30;;
15643;SDS011;7921;43.586;1.408;2022-12-17T13:45:47;2.90;;;2.70;;
15643;SDS011;7921;43.586;1.408;2022-12-17T13:48:23;3.00;;;2.80;;
15643;SDS011;7921;43.586;1.408;2022-12-17T13:50:57;2.93;;;2.73;;
15643;SDS011;7921;43.586;1.408;2022-12-17T13:53:24;3.37;;;3.17;;
15643;SDS011;7921;43.586;1.408;2022-12-17T13:55:52;3.07;;;2.80;;
15643;SDS011;7921;43.586;1.408;2022-12-17T13:58:22;2.80;;;2.60;;
15643;SDS011;7921;43.586;1.408;2022-12-17T14:01:02;3.40;;;3.10;;
15643;SDS011;7921;43.586;1.408;2022-12-17T14:03:29;3.20;;;2.90;;
15643;SDS011;7921;43.586;1.408;2022-12-17T14:05:55;3.00;;;2.80;;
15643;SDS011;7921;43.586;1.408;2022-12-17T14:08:27;3.30;;;3.10;;
15643;SDS011;7921;43.586;1.408;2022-12-17T14:10:53;3.97;;;2.97;;
15643;SDS011;7921;43.586;1.408;2022-12-17T14:13:39;3.10;;;2.40;;
15643;SDS011;7921;43.586;1.408;2022-12-17T14:16:05;3.57;;;2.67;;
15643;SDS011;7921;43.586;1.408;2022-12-17T14:18:31;2.90;;;2.70;;
15643;SDS011;7921;43.586;1.408;2022-12-17T14:20:56;2.97;;;2.77;;
15643;SDS011;7921;43.586;1.408;2022-12-17T14:25:54;2.63;;;2.43;;
15643;SDS011;7921;43.586;1.408;2022-12-17T14:28:21;2.93;;;2.63;;
15643;SDS011;7921;43.586;1.408;2022-12-17T14:30:47;1.87;;;1.77;;
15643;SDS011;7921;43.586;1.408;2022-12-17T14:33:31;2.97;;;2.77;;
15643;SDS011;7921;43.586;1.408;2022-12-17T14:36:05;3.23;;;2.97;;
15643;SDS011;7921;43.586;1.408;2022-12-17T14:38:55;2.90;;;2.70;;
15643;SDS011;7921;43.586;1.408;2022-12-17T14:41:23;2.50;;;2.30;;
15643;SDS011;7921;43.586;1.408;2022-12-17T14:44:12;2.93;;;2.50;;
15643;SDS011;7921;43.586;1.408;2022-12-17T14:46:43;2.97;;;2.70;;
15643;SDS011;7921;43.586;1.408;2022-12-17T14:49:16;2.83;;;2.27;;
15643;SDS011;7921;43.586;1.408;2022-12-17T14:51:43;2.40;;;2.20;;
15643;SDS011;7921;43.586;1.408;2022-12-17T14:56:46;2.60;;;2.40;;
15643;SDS011;7921;43.586;1.408;2022-12-17T14:59:32;2.80;;;2.60;;
15643;SDS011;7921;43.586;1.408;2022-12-17T15:04:32;2.60;;;2.40;;
15643;SDS011;7921;43.586;1.408;2022-12-17T15:07:00;2.57;;;2.37;;
15643;SDS011;7921;43.586;1.408;2022-12-17T15:09:26;2.67;;;2.50;;
15643;SDS011;7921;43.586;1.408;2022-12-17T15:11:51;2.73;;;2.53;;
15643;SDS011;7921;43.586;1.408;2022-12-17T15:14:16;2.33;;;2.23;;
15643;SDS011;7921;43.586;1.408;2022-12-17T15:16:42;2.57;;;2.37;;
15643;SDS011;7921;43.586;1.408;2022-12-17T15:19:07;2.07;;;1.90;;
15643;SDS011;7921;43.586;1.408;2022-12-17T15:21:33;2.53;;;2.33;;
15643;SDS011;7921;43.586;1.408;2022-12-17T15:23:58;2.83;;;2.63;;
15643;SDS011;7921;43.586;1.408;2022-12-17T15:26:24;2.37;;;2.23;;
15643;SDS011;7921;43.586;1.408;2022-12-17T15:28:49;2.40;;;2.20;;
15643;SDS011;7921;43.586;1.408;2022-12-17T15:31:15;2.60;;;2.37;;
15643;SDS011;7921;43.586;1.408;2022-12-17T15:33:41;2.37;;;2.17;;
15643;SDS011;7921;43.586;1.408;2022-12-17T15:36:06;3.33;;;2.63;;
15643;SDS011;7921;43.586;1.408;2022-12-17T15:38:33;2.40;;;2.20;;
15643;SDS011;7921;43.586;1.408;2022-12-17T15:40:59;2.00;;;1.90;;
15643;SDS011;7921;43.586;1.408;2022-12-17T15:43:25;2.83;;;2.30;;
15643;SDS011;7921;43.586;1.408;2022-12-17T15:45:50;2.70;;;2.50;;
15643;SDS011;7921;43.586;1.408;2022-12-17T15:48:20;2.33;;;2.13;;
15643;SDS011;7921;43.586;1.408;2022-12-17T15:50:47;3.00;;;2.80;;
15643;SDS011;7921;43.586;1.408;2022-12-17T15:53:12;3.20;;;3.00;;
15643;SDS011;7921;43.586;1.408;2022-12-17T15:55:38;2.90;;;2.70;;
15643;SDS011;7921;43.586;1.408;2022-12-17T15:58:04;2.83;;;2.33;;
15643;SDS011;7921;43.586;1.408;2022-12-17T16:00:30;2.80;;;2.43;;
15643;SDS011;7921;43.586;1.408;2022-12-17T16:02:57;3.07;;;2.77;;
15643;SDS011;7921;43.586;1.408;2022-12-17T16:05:22;2.60;;;2.40;;
15643;SDS011;7921;43.586;1.408;2022-12-17T16:07:48;3.10;;;2.90;;
15643;SDS011;7921;43.586;1.408;2022-12-17T16:10:14;3.10;;;2.83;;
15643;SDS011;7921;43.586;1.408;2022-12-17T16:12:40;2.50;;;2.30;;
15643;SDS011;7921;43.586;1.408;2022-12-17T16:15:05;2.60;;;2.43;;
15643;SDS011;7921;43.586;1.408;2022-12-17T16:17:34;2.70;;;2.50;;
15643;SDS011;7921;43.586;1.408;2022-12-17T16:20:00;2.60;;;2.40;;
15643;SDS011;7921;43.586;1.408;2022-12-17T16:22:26;2.90;;;2.70;;
15643;SDS011;7921;43.586;1.408;2022-12-17T16:24:52;3.10;;;2.80;;
15643;SDS011;7921;43.586;1.408;2022-12-17T16:27:17;3.00;;;2.80;;
15643;SDS011;7921;43.586;1.408;2022-12-17T16:29:44;2.90;;;2.70;;
15643;SDS011;7921;43.586;1.408;2022-12-17T16:32:10;3.50;;;3.30;;
15643;SDS011;7921;43.586;1.408;2022-12-17T16:34:36;3.33;;;3.13;;
15643;SDS011;7921;43.586;1.408;2022-12-17T16:37:01;3.37;;;3.17;;
15643;SDS011;7921;43.586;1.408;2022-12-17T16:39:27;3.60;;;3.33;;
15643;SDS011;7921;43.586;1.408;2022-12-17T16:41:52;3.90;;;3.60;;
15643;SDS011;7921;43.586;1.408;2022-12-17T16:44:18;3.90;;;3.60;;
15643;SDS011;7921;43.586;1.408;2022-12-17T16:46:43;4.03;;;3.53;;
15643;SDS011;7921;43.586;1.408;2022-12-17T16:49:17;3.23;;;2.93;;
15643;SDS011;7921;43.586;1.408;2022-12-17T16:51:44;3.00;;;2.70;;
15643;SDS011;7921;43.586;1.408;2022-12-17T16:54:12;3.03;;;2.83;;
15643;SDS011;7921;43.586;1.408;2022-12-17T16:56:39;2.80;;;2.60;;
15643;SDS011;7921;43.586;1.408;2022-12-17T16:59:05;2.90;;;2.70;;
15643;SDS011;7921;43.586;1.408;2022-12-17T17:01:32;3.10;;;2.90;;
15643;SDS011;7921;43.586;1.408;2022-12-17T17:03:58;3.20;;;3.00;;
15643;SDS011;7921;43.586;1.408;2022-12-17T17:06:24;3.30;;;3.00;;
15643;SDS011;7921;43.586;1.408;2022-12-17T17:08:49;3.50;;;3.30;;
15643;SDS011;7921;43.586;1.408;2022-12-17T17:11:16;4.20;;;3.90;;
15643;SDS011;7921;43.586;1.408;2022-12-17T17:13:46;4.60;;;4.20;;
15643;SDS011;7921;43.586;1.408;2022-12-17T17:16:13;3.97;;;3.67;;
15643;SDS011;7921;43.586;1.408;2022-12-17T17:18:39;4.23;;;3.93;;
15643;SDS011;7921;43.586;1.408;2022-12-17T17:23:57;4.27;;;3.97;;
15643;SDS011;7921;43.586;1.408;2022-12-17T17:26:24;4.97;;;4.57;;
15643;SDS011;7921;43.586;1.408;2022-12-17T17:28:51;5.23;;;4.77;;
15643;SDS011;7921;43.586;1.408;2022-12-17T17:31:17;4.30;;;4.00;;
15643;SDS011;7921;43.586;1.408;2022-12-17T17:33:44;4.10;;;3.80;;
15643;SDS011;7921;43.586;1.408;2022-12-17T17:36:11;4.70;;;4.30;;
15643;SDS011;7921;43.586;1.408;2022-12-17T17:38:47;5.03;;;4.63;;
15643;SDS011;7921;43.586;1.408;2022-12-17T17:41:14;5.50;;;5.10;;
15643;SDS011;7921;43.586;1.408;2022-12-17T17:43:41;5.13;;;4.70;;
15643;SDS011;7921;43.586;1.408;2022-12-17T17:46:08;5.10;;;4.70;;
15643;SDS011;7921;43.586;1.408;2022-12-17T17:48:36;4.60;;;4.20;;
15643;SDS011;7921;43.586;1.408;2022-12-17T17:51:04;4.97;;;4.57;;